createdAt,value
2023-02-13T00:00:11.386Z,103161.78
2023-02-13T00:02:38.494Z,103151.34
2023-02-13T00:05:05.553Z,103152.19
2023-02-13T00:07:32.382Z,103151.63
2023-02-13T00:09:59.337Z,103146.44
2023-02-13T00:12:26.189Z,103145.78
2023-02-13T00:14:53.165Z,103145.88
2023-02-13T00:17:20.087Z,103144.09
2023-02-13T00:19:47.086Z,103139.03
2023-02-13T00:22:14.148Z,103143.72
2023-02-13T00:24:41.151Z,103136.84
2023-02-13T00:27:08.109Z,103137.69
2023-02-13T00:29:35.013Z,103138.53
2023-02-13T00:32:02.103Z,103131.59
2023-02-13T00:34:29.168Z,103128.22
2023-02-13T00:36:56.088Z,103127.38
2023-02-13T00:39:22.960Z,103123.97
2023-02-13T00:41:49.902Z,103129.22
2023-02-13T00:44:16.833Z,103130.00
2023-02-13T00:46:43.974Z,103139.66
2023-02-13T00:49:11.014Z,103135.34
2023-02-13T00:51:37.984Z,103126.69
2023-02-13T00:54:05.043Z,103125.09
2023-02-13T00:56:31.991Z,103127.72
2023-02-13T00:58:59.087Z,103127.06
2023-02-13T01:01:26.137Z,103122.81
2023-02-13T01:03:53.088Z,103124.50
2023-02-13T01:06:20.025Z,103127.88
2023-02-13T01:08:47.047Z,103130.44
2023-02-13T01:11:15.202Z,103133.13
2023-02-13T01:13:42.080Z,103124.50
2023-02-13T01:16:09.033Z,103129.84
2023-02-13T01:18:35.988Z,103130.03
2023-02-13T01:21:05.412Z,103129.19
2023-02-13T01:23:34.370Z,103133.53
2023-02-13T01:26:01.523Z,103141.41
2023-02-13T01:28:28.713Z,103138.84
2023-02-13T01:30:57.288Z,103138.09
2023-02-13T01:33:25.033Z,103133.78
2023-02-13T01:35:52.117Z,103125.91
2023-02-13T01:38:19.380Z,103130.47
2023-02-13T01:40:47.613Z,103119.31
2023-02-13T01:43:14.818Z,103121.09
2023-02-13T01:45:43.050Z,103126.34
2023-02-13T01:48:12.931Z,103125.50
2023-02-13T01:50:44.386Z,103117.69
2023-02-13T01:53:13.506Z,103120.16
2023-02-13T01:55:45.709Z,103116.41
2023-02-13T01:58:14.966Z,103115.47
2023-02-13T02:00:41.901Z,103120.81
2023-02-13T02:03:13.157Z,103119.56
2023-02-13T02:05:40.447Z,103123.47
2023-02-13T02:08:09.988Z,103126.38
2023-02-13T02:10:36.952Z,103115.84
2023-02-13T02:13:07.199Z,103116.91
2023-02-13T02:15:34.127Z,103117.81
2023-02-13T02:18:00.979Z,103110.78
2023-02-13T02:20:28.280Z,103113.41
2023-02-13T02:23:08.467Z,103100.28
2023-02-13T02:25:35.685Z,103107.41
2023-02-13T02:28:05.677Z,103105.69
2023-02-13T02:30:35.714Z,103106.53
2023-02-13T02:33:05.660Z,103097.75
2023-02-13T02:35:33.914Z,103101.22
2023-02-13T02:38:03.845Z,103090.78
2023-02-13T02:40:32.190Z,103093.41
2023-02-13T02:43:02.210Z,103089.00
2023-02-13T02:45:38.903Z,103095.09
2023-02-13T02:48:13.131Z,103091.56
2023-02-13T02:50:43.029Z,103097.75
2023-02-13T02:53:10.304Z,103100.63
2023-02-13T02:55:42.064Z,103091.06
2023-02-13T02:58:14.885Z,103103.34
2023-02-13T03:00:46.214Z,103100.81
2023-02-13T03:03:19.624Z,103092.94
2023-02-13T03:05:51.514Z,103090.97
2023-02-13T03:08:38.639Z,103098.94
2023-02-13T03:11:09.964Z,103093.41
2023-02-13T03:13:40.074Z,103089.84
2023-02-13T03:16:10.584Z,103088.00
2023-02-13T03:18:43.121Z,103087.16
2023-02-13T03:21:17.584Z,103088.00
2023-02-13T03:23:47.540Z,103086.22
2023-02-13T03:26:17.473Z,103088.66
2023-02-13T03:28:53.604Z,103088.75
2023-02-13T03:31:20.887Z,103084.25
2023-02-13T03:33:54.922Z,103078.91
2023-02-13T03:36:27.966Z,103083.41
2023-02-13T03:38:57.907Z,103085.09
2023-02-13T03:41:29.139Z,103082.56
2023-02-13T03:43:57.315Z,103068.50
2023-02-13T03:46:26.100Z,103072.81
2023-02-13T03:48:57.186Z,103078.06
2023-02-13T03:51:28.384Z,103071.97
2023-02-13T03:53:59.710Z,103075.44
2023-02-13T03:56:30.844Z,103068.50
2023-02-13T03:59:02.627Z,103069.41
2023-02-13T04:01:31.019Z,103069.63
2023-02-13T04:04:02.842Z,103073.16
2023-02-13T04:06:32.411Z,103070.69
2023-02-13T04:08:59.359Z,103068.06
2023-02-13T04:11:31.968Z,103070.63
2023-02-13T04:14:01.296Z,103065.44
2023-02-13T04:16:28.491Z,103067.25
2023-02-13T04:18:56.455Z,103067.41
2023-02-13T04:21:23.466Z,103064.97
2023-02-13T04:23:50.365Z,103074.63
2023-02-13T04:26:19.192Z,103073.72
2023-02-13T04:28:46.145Z,103069.38
2023-02-13T04:31:13.511Z,103071.16
2023-02-13T04:33:40.765Z,103072.94
2023-02-13T04:36:07.942Z,103067.69
2023-02-13T04:38:34.790Z,103070.31
2023-02-13T04:41:01.706Z,103070.31
2023-02-13T04:43:28.669Z,103064.41
2023-02-13T04:45:55.593Z,103066.25
2023-02-13T04:48:22.543Z,103072.44
2023-02-13T04:50:49.382Z,103068.22
2023-02-13T04:53:16.529Z,103063.88
2023-02-13T04:55:43.568Z,103063.88
2023-02-13T04:58:10.575Z,103063.97
2023-02-13T05:00:38.029Z,103063.22
2023-02-13T05:03:06.537Z,103066.84
2023-02-13T05:05:33.456Z,103061.69
2023-02-13T05:08:00.900Z,103061.78
2023-02-13T05:10:28.017Z,103066.19
2023-02-13T05:12:54.892Z,103067.97
2023-02-13T05:15:23.001Z,103064.41
2023-02-13T05:17:50.215Z,103059.16
2023-02-13T05:20:17.624Z,103059.25
2023-02-13T05:22:49.061Z,103056.53
2023-02-13T05:25:16.060Z,103049.66
2023-02-13T05:27:42.987Z,103040.94
2023-02-13T05:30:10.239Z,103048.94
2023-02-13T05:32:37.862Z,103051.63
2023-02-13T05:35:05.849Z,103044.53
2023-02-13T05:37:32.731Z,103042.81
2023-02-13T05:39:59.671Z,103037.66
2023-02-13T05:42:26.769Z,103029.78
2023-02-13T05:44:53.666Z,103032.41
2023-02-13T05:47:20.587Z,103043.09
2023-02-13T05:49:47.406Z,103038.00
2023-02-13T05:52:14.236Z,103042.50
2023-02-13T05:54:41.100Z,103042.59
2023-02-13T05:57:08.198Z,103036.69
2023-02-13T05:59:34.996Z,103037.59
2023-02-13T06:02:01.874Z,103032.44
2023-02-13T06:04:29.010Z,103036.94
2023-02-13T06:06:55.840Z,103037.84
2023-02-13T06:09:22.721Z,103043.19
2023-02-13T06:11:49.564Z,103034.47
2023-02-13T06:14:16.487Z,103037.28
2023-02-13T06:16:43.422Z,103038.84
2023-02-13T06:19:10.238Z,103038.97
2023-02-13T06:21:38.769Z,103033.13
2023-02-13T06:24:06.192Z,103041.09
2023-02-13T06:26:33.307Z,103038.47
2023-02-13T06:29:00.456Z,103042.84
2023-02-13T06:31:27.359Z,103035.97
2023-02-13T06:33:54.588Z,103036.94
2023-02-13T06:36:21.383Z,103029.16
2023-02-13T06:38:48.313Z,103033.53
2023-02-13T06:41:15.103Z,103038.00
2023-02-13T06:43:41.922Z,103037.09
2023-02-13T06:46:09.406Z,103043.13
2023-02-13T06:48:36.614Z,103042.34
2023-02-13T06:51:03.578Z,103045.81
2023-02-13T06:53:30.463Z,103046.91
2023-02-13T06:55:57.409Z,103050.38
2023-02-13T06:58:25.307Z,103054.78
2023-02-13T07:00:52.644Z,103050.53
2023-02-13T07:03:19.790Z,103047.91
2023-02-13T07:05:46.683Z,103050.53
2023-02-13T07:08:13.693Z,103051.50
2023-02-13T07:10:41.496Z,103048.69
2023-02-13T07:13:08.733Z,103051.56
2023-02-13T07:15:35.737Z,103047.16
2023-02-13T07:18:02.989Z,103049.88
2023-02-13T07:20:29.977Z,103052.50
2023-02-13T07:22:58.819Z,103053.41
2023-02-13T07:25:25.760Z,103056.88
2023-02-13T07:27:52.745Z,103058.59
2023-02-13T07:30:19.922Z,103057.75
2023-02-13T07:32:46.775Z,103064.63
2023-02-13T07:35:13.750Z,103063.84
2023-02-13T07:37:40.613Z,103065.53
2023-02-13T07:40:11.402Z,103063.66
2023-02-13T07:42:38.252Z,103061.72
2023-02-13T07:45:06.591Z,103067.91
2023-02-13T07:47:34.296Z,103069.41
2023-02-13T07:50:01.760Z,103060.56
2023-02-13T07:52:28.735Z,103061.56
2023-02-13T07:54:55.639Z,103064.03
2023-02-13T07:57:22.533Z,103064.69
2023-02-13T07:59:49.455Z,103066.41
2023-02-13T08:02:17.225Z,103053.16
2023-02-13T08:04:47.532Z,103053.16
2023-02-13T08:07:15.206Z,103055.72
2023-02-13T08:09:45.334Z,103054.53
2023-02-13T08:12:12.289Z,103053.84
2023-02-13T08:14:39.265Z,103054.53
2023-02-13T08:17:06.232Z,103051.03
2023-02-13T08:19:33.137Z,103052.63
2023-02-13T08:22:00.291Z,103056.97
2023-02-13T08:24:27.481Z,103049.84
2023-02-13T08:26:54.425Z,103047.38
2023-02-13T08:29:21.536Z,103048.16
2023-02-13T08:31:48.531Z,103048.09
2023-02-13T08:34:15.523Z,103044.41
2023-02-13T08:36:42.410Z,103039.16
2023-02-13T08:39:10.093Z,103038.81
2023-02-13T08:41:37.119Z,103048.63
2023-02-13T08:44:04.183Z,103044.66
2023-02-13T08:46:31.282Z,103049.63
2023-02-13T08:48:58.408Z,103044.66
2023-02-13T08:51:25.417Z,103045.97
2023-02-13T08:53:52.376Z,103041.75
2023-02-13T08:56:19.530Z,103044.19
2023-02-13T08:58:49.133Z,103049.88
2023-02-13T09:01:16.489Z,103047.66
2023-02-13T09:03:43.589Z,103045.44
2023-02-13T09:06:10.538Z,103041.41
2023-02-13T09:08:37.547Z,103050.22
2023-02-13T09:11:05.950Z,103040.56
2023-02-13T09:13:34.731Z,103036.06
2023-02-13T09:16:02.739Z,103029.97
2023-02-13T09:18:30.071Z,103021.22
2023-02-13T09:20:59.093Z,103021.16
2023-02-13T09:23:26.212Z,103029.03
2023-02-13T09:25:53.271Z,103030.63
2023-02-13T09:28:20.279Z,103027.06
2023-02-13T09:30:49.534Z,103025.38
2023-02-13T09:33:16.618Z,103021.03
2023-02-13T09:35:44.780Z,103015.78
2023-02-13T09:38:12.099Z,103016.34
2023-02-13T09:40:39.334Z,103012.91
2023-02-13T09:43:09.318Z,103028.56
2023-02-13T09:45:36.943Z,103018.81
2023-02-13T09:48:04.669Z,103009.03
2023-02-13T09:50:33.736Z,103009.72
2023-02-13T09:53:00.782Z,103011.88
2023-02-13T09:55:31.849Z,103006.44
2023-02-13T09:58:02.070Z,103007.94
2023-02-13T10:00:32.225Z,103007.75
2023-02-13T10:02:59.722Z,103009.34
2023-02-13T10:05:29.726Z,103011.69
2023-02-13T10:07:56.962Z,103018.38
2023-02-13T10:10:30.860Z,103025.97
2023-02-13T10:13:00.844Z,103018.63
2023-02-13T10:15:30.835Z,103013.00
2023-02-13T10:18:00.831Z,103004.81
2023-02-13T10:20:30.881Z,103010.84
2023-02-13T10:23:00.946Z,103005.41
2023-02-13T10:25:30.550Z,103009.53
2023-02-13T10:28:00.734Z,103009.25
2023-02-13T10:30:31.023Z,103008.94
2023-02-13T10:33:04.092Z,103015.69
2023-02-13T10:35:31.724Z,103010.06
2023-02-13T10:38:00.112Z,103012.38
2023-02-13T10:40:30.180Z,103008.66
2023-02-13T10:43:00.154Z,103012.94
2023-02-13T10:45:30.364Z,103006.00
2023-02-13T10:47:57.777Z,103023.09
2023-02-13T10:50:26.175Z,103013.31
2023-02-13T10:52:56.420Z,103022.59
2023-02-13T10:55:24.871Z,103017.03
2023-02-13T10:58:02.063Z,103016.75
2023-02-13T11:00:34.383Z,103026.13
2023-02-13T11:03:01.679Z,103016.22
2023-02-13T11:05:31.677Z,103014.44
2023-02-13T11:08:00.177Z,103012.56
2023-02-13T11:10:28.304Z,103015.75
2023-02-13T11:12:56.948Z,103012.03
2023-02-13T11:15:27.167Z,103011.09
2023-02-13T11:17:55.554Z,103012.03
2023-02-13T11:20:25.541Z,103011.84
2023-02-13T11:22:52.667Z,103013.44
2023-02-13T11:25:22.831Z,103007.84
2023-02-13T11:27:50.727Z,102999.66
2023-02-13T11:30:20.723Z,103000.09
2023-02-13T11:32:56.652Z,102994.41
2023-02-13T11:35:27.100Z,103000.13
2023-02-13T11:37:57.192Z,103000.75
2023-02-13T11:40:27.247Z,102993.59
2023-02-13T11:42:54.241Z,102990.66
2023-02-13T11:45:23.233Z,102984.22
2023-02-13T11:47:50.570Z,102983.91
2023-02-13T11:50:20.778Z,102977.38
2023-02-13T11:52:50.792Z,102968.38
2023-02-13T11:55:20.864Z,102968.19
2023-02-13T11:57:56.611Z,102958.25
2023-02-13T12:02:55.331Z,102952.34
2023-02-13T12:05:24.014Z,102942.47
2023-02-13T12:07:51.372Z,102941.19
2023-02-13T12:10:21.453Z,102942.66
2023-02-13T12:12:50.697Z,102935.47
2023-02-13T12:15:19.602Z,102941.25
2023-02-13T12:17:48.856Z,102935.78
2023-02-13T12:20:17.395Z,102937.25
2023-02-13T12:22:55.538Z,102943.03
2023-02-13T12:25:25.522Z,102935.63
2023-02-13T12:27:55.485Z,102929.94
2023-02-13T12:30:25.439Z,102927.91
2023-02-13T12:32:53.758Z,102924.06
2023-02-13T12:35:23.940Z,102924.59
2023-02-13T12:37:53.884Z,102926.78
2023-02-13T12:40:25.063Z,102929.94
2023-02-13T12:42:55.197Z,102921.91
2023-02-13T12:45:22.606Z,102927.91
2023-02-13T12:47:50.914Z,102921.31
2023-02-13T12:50:27.579Z,102913.19
2023-02-13T12:52:55.812Z,102914.75
2023-02-13T12:55:29.369Z,102909.25
2023-02-13T12:57:59.337Z,102907.94
2023-02-13T13:00:26.894Z,102908.44
2023-02-13T13:02:57.032Z,102899.47
2023-02-13T13:05:27.693Z,102906.06
2023-02-13T13:08:01.509Z,102899.59
2023-02-13T13:10:28.901Z,102897.34
2023-02-13T13:12:58.861Z,102889.06
2023-02-13T13:15:33.357Z,102888.13
2023-02-13T13:18:03.334Z,102887.88
2023-02-13T13:20:31.633Z,102884.28
2023-02-13T13:23:06.305Z,102886.66
2023-02-13T13:25:36.843Z,102881.38
2023-02-13T13:28:06.899Z,102875.03
2023-02-13T13:30:36.139Z,102873.09
2023-02-13T13:33:07.700Z,102871.94
2023-02-13T13:35:35.217Z,102871.56
2023-02-13T13:38:02.933Z,102869.66
2023-02-13T13:40:30.237Z,102864.16
2023-02-13T13:43:03.684Z,102864.75
2023-02-13T13:45:38.254Z,102868.97
2023-02-13T13:48:08.275Z,102859.34
2023-02-13T13:50:37.975Z,102861.03
2023-02-13T13:53:06.662Z,102852.97
2023-02-13T13:55:36.632Z,102848.66
2023-02-13T13:58:03.548Z,102847.56
2023-02-13T14:00:30.942Z,102842.19
2023-02-13T14:02:59.198Z,102842.03
2023-02-13T14:05:26.424Z,102844.47
2023-02-13T14:07:56.604Z,102833.88
2023-02-13T14:10:26.585Z,102842.53
2023-02-13T14:12:53.910Z,102831.84
2023-02-13T14:15:23.897Z,102821.16
2023-02-13T14:17:52.504Z,102819.44
2023-02-13T14:20:22.475Z,102819.34
2023-02-13T14:22:49.580Z,102820.03
2023-02-13T14:25:19.622Z,102820.78
2023-02-13T14:27:55.310Z,102816.06
2023-02-13T14:30:27.256Z,102809.81
2023-02-13T14:32:54.708Z,102812.22
2023-02-13T14:35:24.759Z,102816.81
2023-02-13T14:37:53.299Z,102810.31
2023-02-13T14:40:20.561Z,102810.03
2023-02-13T14:42:52.041Z,102808.13
2023-02-13T14:45:22.348Z,102808.13
2023-02-13T14:47:53.669Z,102804.53
2023-02-13T14:50:24.852Z,102811.50
2023-02-13T14:52:52.752Z,102805.38
2023-02-13T14:55:22.773Z,102806.91
2023-02-13T14:57:52.568Z,102809.19
2023-02-13T15:00:22.739Z,102804.75
2023-02-13T15:02:53.714Z,102805.31
2023-02-13T15:05:21.034Z,102810.63
2023-02-13T15:07:48.856Z,102808.13
2023-02-13T15:10:18.941Z,102807.84
2023-02-13T15:12:45.905Z,102802.19
2023-02-13T15:15:16.144Z,102808.09
2023-02-13T15:17:43.316Z,102800.16
2023-02-13T15:20:13.275Z,102798.59
2023-02-13T15:22:41.762Z,102793.41
2023-02-13T15:25:09.236Z,102791.75
2023-02-13T15:27:43.294Z,102795.22
2023-02-13T15:30:13.290Z,102802.19
2023-02-13T15:32:41.731Z,102791.59
2023-02-13T15:35:12.438Z,102797.16
2023-02-13T15:37:39.420Z,102790.28
2023-02-13T15:40:09.482Z,102789.59
2023-02-13T15:42:38.207Z,102784.41
2023-02-13T15:45:05.671Z,102781.88
2023-02-13T15:47:33.437Z,102788.16
2023-02-13T15:50:01.012Z,102782.72
2023-02-13T15:52:31.065Z,102776.00
2023-02-13T15:54:58.211Z,102791.16
2023-02-13T15:57:27.120Z,102788.50
2023-02-13T15:59:55.895Z,102786.13
2023-02-13T16:02:26.026Z,102785.41
2023-02-13T16:04:53.730Z,102787.22
2023-02-13T16:07:20.947Z,102786.63
2023-02-13T16:09:48.195Z,102790.22
2023-02-13T16:12:18.316Z,102786.03
2023-02-13T16:14:49.029Z,102786.97
2023-02-13T16:17:18.706Z,102788.66
2023-02-13T16:19:53.274Z,102792.28
2023-02-13T16:22:21.956Z,102791.69
2023-02-13T16:24:51.185Z,102794.81
2023-02-13T16:27:20.767Z,102795.91
2023-02-13T16:29:51.569Z,102795.28
2023-02-13T16:32:23.137Z,102795.44
2023-02-13T16:34:51.112Z,102791.34
2023-02-13T16:37:21.150Z,102783.75
2023-02-13T16:39:48.113Z,102791.09
2023-02-13T16:42:19.617Z,102786.03
2023-02-13T16:44:46.551Z,102798.63
2023-02-13T16:47:21.256Z,102797.09
2023-02-13T16:49:53.373Z,102799.94
2023-02-13T16:52:23.679Z,102792.28
2023-02-13T16:54:51.031Z,102794.31
2023-02-13T16:57:35.679Z,102792.84
2023-02-13T17:00:05.902Z,102792.16
2023-02-13T17:02:33.338Z,102787.22
2023-02-13T17:05:03.580Z,102803.44
2023-02-13T17:07:32.223Z,102796.69
2023-02-13T17:10:00.619Z,102790.81
2023-02-13T17:12:28.997Z,102791.75
2023-02-13T17:14:57.456Z,102793.69
2023-02-13T17:17:24.863Z,102788.53
2023-02-13T17:19:51.835Z,102787.94
2023-02-13T17:22:19.120Z,102791.72
2023-02-13T17:24:46.175Z,102795.72
2023-02-13T17:27:13.077Z,102797.72
2023-02-13T17:29:40.202Z,102800.50
2023-02-13T17:32:09.533Z,102803.97
2023-02-13T17:34:36.551Z,102800.72
2023-02-13T17:37:03.463Z,102802.50
2023-02-13T17:39:30.411Z,102807.94
2023-02-13T17:41:57.395Z,102805.41
2023-02-13T17:44:24.474Z,102812.56
2023-02-13T17:46:53.360Z,102818.09
2023-02-13T17:49:20.712Z,102821.69
2023-02-13T17:51:48.140Z,102815.66
2023-02-13T17:54:15.387Z,102814.97
2023-02-13T17:56:42.370Z,102815.16
2023-02-13T17:59:09.383Z,102820.59
2023-02-13T18:01:36.422Z,102821.66
2023-02-13T18:04:03.498Z,102812.28
2023-02-13T18:06:31.461Z,102816.94
2023-02-13T18:08:58.501Z,102812.88
2023-02-13T18:11:25.680Z,102810.53
2023-02-13T18:13:52.869Z,102817.94
2023-02-13T18:16:22.941Z,102813.16
2023-02-13T18:18:49.965Z,102811.81
2023-02-13T18:21:17.006Z,102814.78
2023-02-13T18:23:44.056Z,102812.47
2023-02-13T18:26:11.116Z,102816.16
2023-02-13T18:28:38.443Z,102813.97
2023-02-13T18:31:05.574Z,102814.81
2023-02-13T18:33:32.793Z,102822.00
2023-02-13T18:36:00.624Z,102823.66
2023-02-13T18:38:27.739Z,102825.47
2023-02-13T18:40:54.834Z,102820.28
2023-02-13T18:43:21.939Z,102830.94
2023-02-13T18:45:49.301Z,102823.97
2023-02-13T18:48:16.271Z,102824.22
2023-02-13T18:50:43.311Z,102813.84
2023-02-13T18:53:10.507Z,102814.72
2023-02-13T18:55:37.919Z,102814.00
2023-02-13T18:58:05.531Z,102816.13
2023-02-13T19:00:32.581Z,102810.34
2023-02-13T19:03:00.033Z,102814.00
2023-02-13T19:05:27.329Z,102810.66
2023-02-13T19:07:54.371Z,102810.00
2023-02-13T19:10:21.549Z,102817.31
2023-02-13T19:12:48.660Z,102815.63
2023-02-13T19:15:16.895Z,102813.22
2023-02-13T19:17:43.996Z,102814.25
2023-02-13T19:20:11.394Z,102805.72
2023-02-13T19:22:38.532Z,102806.06
2023-02-13T19:25:05.653Z,102807.22
2023-02-13T19:27:32.597Z,102803.84
2023-02-13T19:29:59.734Z,102804.94
2023-02-13T19:32:26.762Z,102801.66
2023-02-13T19:34:53.690Z,102792.28
2023-02-13T19:37:20.654Z,102793.44
2023-02-13T19:39:47.693Z,102794.63
2023-02-13T19:42:14.647Z,102787.84
2023-02-13T19:44:41.533Z,102798.50
2023-02-13T19:47:08.552Z,102796.91
2023-02-13T19:49:35.540Z,102794.50
2023-02-13T19:52:03.994Z,102793.03
2023-02-13T19:54:30.986Z,102799.44
2023-02-13T19:57:02.090Z,102804.09
2023-02-13T19:59:29.216Z,102803.56
2023-02-13T20:01:56.201Z,102802.09
2023-02-13T20:04:23.183Z,102805.03
2023-02-13T20:06:51.096Z,102801.88
2023-02-13T20:09:18.215Z,102809.97
2023-02-13T20:11:45.900Z,102813.75
2023-02-13T20:14:15.334Z,102817.44
2023-02-13T20:16:43.272Z,102817.63
2023-02-13T20:19:13.357Z,102818.59
2023-02-13T20:21:41.813Z,102806.38
2023-02-13T20:24:09.392Z,102811.84
2023-02-13T20:26:36.665Z,102812.81
2023-02-13T20:29:03.570Z,102816.38
2023-02-13T20:31:31.017Z,102823.53
2023-02-13T20:33:58.645Z,102828.06
2023-02-13T20:36:27.691Z,102828.25
2023-02-13T20:38:55.733Z,102825.72
2023-02-13T20:41:24.087Z,102819.50
2023-02-13T20:43:51.557Z,102822.22
2023-02-13T20:46:19.273Z,102816.25
2023-02-13T20:48:47.699Z,102817.28
2023-02-13T20:51:15.737Z,102816.56
2023-02-13T20:53:43.466Z,102819.28
2023-02-13T20:56:13.885Z,102817.72
2023-02-13T20:58:41.844Z,102816.94
2023-02-13T21:01:13.334Z,102816.09
2023-02-13T21:03:42.672Z,102813.47
2023-02-13T21:06:10.715Z,102811.88
2023-02-13T21:08:38.831Z,102813.13
2023-02-13T21:11:07.843Z,102809.81
2023-02-13T21:13:37.485Z,102811.81
2023-02-13T21:16:10.134Z,102808.56
2023-02-13T21:18:40.731Z,102806.78
2023-02-13T21:21:10.243Z,102803.59
2023-02-13T21:23:39.368Z,102805.38
2023-02-13T21:26:26.663Z,102806.31
2023-02-13T21:28:57.818Z,102808.09
2023-02-13T21:31:29.616Z,102806.63
2023-02-13T21:34:00.104Z,102802.50
2023-02-13T21:36:27.611Z,102802.50
2023-02-13T21:38:54.544Z,102802.69
2023-02-13T21:41:21.911Z,102803.63
2023-02-13T21:43:52.669Z,102802.81
2023-02-13T21:46:22.744Z,102799.50
2023-02-13T21:48:53.837Z,102800.56
2023-02-13T21:51:21.063Z,102797.19
2023-02-13T21:53:49.265Z,102797.19
2023-02-13T21:56:17.378Z,102800.75
2023-02-13T21:58:44.518Z,102799.81
2023-02-13T22:01:23.978Z,102797.38
2023-02-13T22:03:53.010Z,102797.47
2023-02-13T22:06:20.295Z,102795.06
2023-02-13T22:08:47.727Z,102788.09
2023-02-13T22:11:14.694Z,102796.06
2023-02-13T22:13:41.936Z,102796.16
2023-02-13T22:16:10.500Z,102798.78
2023-02-13T22:18:38.711Z,102799.84
2023-02-13T22:21:09.092Z,102793.75
2023-02-13T22:23:36.968Z,102791.97
2023-02-13T22:26:04.677Z,102793.75
2023-02-13T22:28:31.556Z,102785.94
2023-02-13T22:30:58.949Z,102779.97
2023-02-13T22:33:26.175Z,102789.53
2023-02-13T22:35:52.926Z,102784.28
2023-02-13T22:38:22.794Z,102782.59
2023-02-13T22:40:49.601Z,102780.06
2023-02-13T22:43:16.340Z,102775.72
2023-02-13T22:45:43.188Z,102771.53
2023-02-13T22:48:10.054Z,102769.94
2023-02-13T22:50:36.799Z,102767.22
2023-02-13T22:53:03.557Z,102769.94
2023-02-13T22:55:30.284Z,102761.13
2023-02-13T22:57:58.514Z,102765.59
2023-02-13T23:00:25.348Z,102770.13
2023-02-13T23:02:52.097Z,102768.44
2023-02-13T23:05:20.626Z,102770.22
2023-02-13T23:07:47.490Z,102774.75
2023-02-13T23:10:14.368Z,102790.50
2023-02-13T23:12:45.707Z,102788.81
2023-02-13T23:15:14.881Z,102782.72
2023-02-13T23:17:47.830Z,102783.34
2023-02-13T23:20:18.948Z,102786.63
2023-02-13T23:22:45.905Z,102785.81
2023-02-13T23:25:12.961Z,102777.16
2023-02-13T23:27:39.965Z,102781.50
2023-02-13T23:30:07.978Z,102779.16
2023-02-13T23:32:34.933Z,102767.13
2023-02-13T23:35:01.976Z,102777.09
2023-02-13T23:37:31.947Z,102774.56
2023-02-13T23:39:58.982Z,102777.00
2023-02-13T23:42:26.038Z,102780.38
2023-02-13T23:44:53.011Z,102783.09
2023-02-13T23:47:20.014Z,102778.97
2023-02-13T23:49:50.173Z,102781.78
2023-02-13T23:52:17.034Z,102784.31
2023-02-13T23:54:43.941Z,102787.78
2023-02-13T23:57:14.058Z,102787.03
2023-02-13T23:59:44.095Z,102793.25
